Time;durP1;ratioP1;P1;durP2;ratioP2;P2;SDS_P1;SDS_P2;PMS_P1;PMS_P2;Temp;Humidity;BMP_temperature;BMP_pressure;BME280_temperature;BME280_humidity;BME280_pressure;Samples;Min_cycle;Max_cycle;Signal;HPM_P1;HPM_P2
2021/07/31 00:00:30;;;;;;;28.57;14.37;;;;;;;24.51;67.82;100008.48;125235;1102;104152;-79
2021/07/31 00:03:21;;;;;;;28.37;15.80;;;;;;;24.50;68.10;100006.70;125083;1102;104150;-79
2021/07/31 00:05:52;;;;;;;32.40;15.50;;;;;;;24.51;68.02;100002.21;125160;1102;104150;-78
2021/07/31 00:08:26;;;;;;;29.33;16.87;;;;;;;24.55;68.07;100017.30;125235;1102;104274;-81
2021/07/31 00:10:57;;;;;;;30.10;15.90;;;;;;;24.54;68.06;100008.39;125183;1102;104267;-78
2021/07/31 00:13:29;;;;;;;30.43;16.43;;;;;;;24.51;68.05;100023.67;125236;1102;104300;-80
2021/07/31 00:15:59;;;;;;;31.27;16.43;;;;;;;24.48;67.92;100026.44;125198;1102;104208;-80
2021/07/31 00:18:30;;;;;;;35.03;16.07;;;;;;;24.43;67.91;100029.25;125194;1102;104171;-80
2021/07/31 00:21:01;;;;;;;26.47;14.57;;;;;;;24.37;68.30;100029.43;125286;1102;104286;-80
2021/07/31 00:23:32;;;;;;;27.43;15.30;;;;;;;24.30;68.41;100025.19;125195;1102;104143;-78
2021/07/31 00:26:03;;;;;;;31.80;15.90;;;;;;;24.30;68.59;100030.55;125186;1102;104293;-80
2021/07/31 00:28:34;;;;;;;25.50;13.93;;;;;;;24.29;68.63;100021.61;125243;1102;104150;-78
2021/07/31 00:31:04;;;;;;;26.40;14.60;;;;;;;24.20;68.64;100014.72;125247;1102;104165;-80
2021/07/31 00:33:35;;;;;;;26.50;12.67;;;;;;;24.10;68.62;100017.70;125179;1102;104152;-78
2021/07/31 00:36:06;;;;;;;25.30;14.10;;;;;;;23.98;68.73;100013.55;125124;1102;104341;-79
2021/07/31 00:38:37;;;;;;;24.17;14.07;;;;;;;23.95;68.78;100006.49;125176;1102;104153;-79
2021/07/31 00:41:08;;;;;;;28.63;13.97;;;;;;;23.97;68.93;100010.00;125196;1102;104309;-79
2021/07/31 00:43:41;;;;;;;29.63;14.63;;;;;;;24.02;68.69;100013.42;125181;1102;104192;-79
2021/07/31 00:46:11;;;;;;;;;;;;;;;24.06;68.45;100014.23;125231;1102;104143;-81
2021/07/31 00:48:42;;;;;;;26.40;14.27;;;;;;;24.07;69.10;100020.47;125235;1100;104217;-79
2021/07/31 00:51:18;;;;;;;26.60;14.23;;;;;;;24.07;69.00;100026.70;125176;1102;104133;-80
2021/07/31 00:53:51;;;;;;;26.40;14.37;;;;;;;24.04;68.97;100030.36;125169;1100;104181;-79
2021/07/31 00:56:22;;;;;;;27.82;14.25;;;;;;;24.04;69.30;100032.14;125181;1102;104168;-81
2021/07/31 00:58:53;;;;;;;29.07;14.33;;;;;;;24.03;69.26;100036.63;125190;1102;104599;-79
2021/07/31 01:01:24;;;;;;;30.23;15.17;;;;;;;23.99;69.19;100036.75;125230;1102;104309;-79
2021/07/31 01:03:56;;;;;;;27.75;14.20;;;;;;;23.93;69.33;100039.59;125204;1103;104328;-79
2021/07/31 01:06:27;;;;;;;27.77;14.17;;;;;;;23.83;69.47;100036.26;125042;1102;104195;-79
2021/07/31 01:08:58;;;;;;;24.70;13.73;;;;;;;23.79;69.73;100046.16;125273;1102;104802;-81
2021/07/31 01:11:29;;;;;;;25.30;14.10;;;;;;;23.75;69.79;100041.81;125156;1102;104634;-80
2021/07/31 01:14:03;;;;;;;28.20;14.63;;;;;;;23.72;69.87;100049.03;125265;1102;104163;-80
2021/07/31 01:16:37;;;;;;;28.62;13.78;;;;;;;23.70;69.99;100041.06;124973;1102;104313;-80
2021/07/31 01:19:08;;;;;;;25.73;14.47;;;;;;;23.71;69.90;100047.29;125214;1102;104239;-80
2021/07/31 01:21:42;;;;;;;25.10;14.67;;;;;;;23.73;70.16;100040.95;125304;1102;104883;-80
2021/07/31 01:24:25;;;;;;;27.87;14.97;;;;;;;23.79;69.98;100045.28;125196;1102;105322;-79
2021/07/31 01:26:56;;;;;;;27.77;15.23;;;;;;;23.85;70.06;100039.80;125171;1102;104194;-80
2021/07/31 01:29:27;;;;;;;27.70;14.77;;;;;;;23.88;70.28;100039.72;125245;1102;104155;-78
2021/07/31 01:31:59;;;;;;;29.47;14.57;;;;;;;23.93;70.08;100043.14;125189;1102;104228;-80
2021/07/31 01:34:32;;;;;;;30.37;15.33;;;;;;;23.97;70.33;100027.89;125225;1102;104347;-79
2021/07/31 01:37:04;;;;;;;28.93;13.70;;;;;;;24.01;70.17;100030.44;125163;1102;105569;-80
2021/07/31 01:39:35;;;;;;;26.63;13.43;;;;;;;24.04;69.85;100035.72;125202;1102;104198;-79
2021/07/31 01:42:09;;;;;;;24.20;13.27;;;;;;;24.05;70.07;100040.14;125192;1102;104223;-80
2021/07/31 01:44:41;;;;;;;23.17;12.70;;;;;;;24.08;70.05;100028.47;125209;1103;104691;-79
2021/07/31 01:47:12;;;;;;;23.93;12.10;;;;;;;24.13;70.02;100028.34;125211;1102;104242;-79
2021/07/31 01:49:46;;;;;;;21.97;12.33;;;;;;;24.16;69.64;100022.89;125229;1102;104147;-80
2021/07/31 01:52:17;;;;;;;21.00;11.63;;;;;;;24.15;69.62;100021.13;125178;1102;104309;-80
2021/07/31 01:54:49;;;;;;;22.40;12.00;;;;;;;24.15;69.58;100015.77;125219;1102;104319;-78
2021/07/31 01:57:20;;;;;;;21.00;11.03;;;;;;;24.16;69.52;100026.44;125153;1102;104367;-79
2021/07/31 02:00:04;;;;;;;22.13;11.57;;;;;;;24.19;69.56;100020.13;125243;1102;104190;-79
2021/07/31 02:02:44;;;;;;;22.53;11.37;;;;;;;24.19;69.42;100020.13;125140;1102;104271;-78
2021/07/31 02:05:20;;;;;;;20.60;11.97;;;;;;;24.15;69.40;100021.13;125245;1102;104294;-78
2021/07/31 02:07:56;;;;;;;22.87;12.60;;;;;;;24.13;69.34;100028.34;125187;1102;104172;-80
2021/07/31 02:10:27;;;;;;;21.10;12.23;;;;;;;24.10;69.33;100023.06;125195;1102;104229;-80
2021/07/31 02:12:59;;;;;;;22.20;12.73;;;;;;;24.05;69.45;100016.02;125247;1102;104181;-80
2021/07/31 02:15:33;;;;;;;26.90;13.53;;;;;;;24.02;69.69;100018.78;125228;1102;104335;-80
2021/07/31 02:18:05;;;;;;;;;;;;;;;24.05;69.51;100025.88;124979;1102;104598;-79
2021/07/31 02:20:37;;;;;;;24.00;12.83;;;;;;;24.05;69.99;100017.83;125017;1102;104752;-79
2021/07/31 02:23:18;;;;;;;24.40;13.00;;;;;;;24.03;69.71;100028.59;125236;1102;104232;-79
2021/07/31 02:26:08;;;;;;;28.43;14.17;;;;;;;24.01;69.66;100022.41;125248;1101;104207;-79
2021/07/31 02:28:54;;;;;;;26.63;13.70;;;;;;;24.00;69.71;100020.63;125142;1100;105473;-80
2021/07/31 02:31:26;;;;;;;27.67;13.30;;;;;;;23.96;69.79;100021.62;125158;1102;104140;-80
2021/07/31 02:33:57;;;;;;;26.77;13.23;;;;;;;23.96;69.42;100029.66;125253;1102;104175;-79
2021/07/31 02:36:29;;;;;;;25.57;13.40;;;;;;;23.96;70.13;100028.80;125160;1102;104162;-80
2021/07/31 02:39:13;;;;;;;25.67;13.53;;;;;;;23.97;69.96;100036.80;125165;1102;105474;-79
2021/07/31 02:41:44;;;;;;;22.83;12.93;;;;;;;23.98;69.27;100032.30;125257;1102;104191;-79
2021/07/31 02:44:18;;;;;;;24.17;13.43;;;;;;;23.97;69.94;100031.44;125092;1102;104278;-79
2021/07/31 02:46:49;;;;;;;21.70;13.43;;;;;;;23.97;70.17;100036.80;125177;1102;104143;-78
2021/07/31 02:49:20;;;;;;;28.90;14.30;;;;;;;23.96;70.14;100032.34;125159;1100;104204;-79
2021/07/31 02:51:52;;;;;;;24.63;14.63;;;;;;;23.97;70.00;100034.11;125244;1102;104226;-80
2021/07/31 02:54:30;;;;;;;25.95;13.45;;;;;;;23.98;70.27;100032.30;125231;1099;104152;-80
2021/07/31 02:57:06;;;;;;;24.80;14.23;;;;;;;23.97;70.29;100027.89;125193;1099;104233;-80
2021/07/31 02:59:37;;;;;;;24.70;13.33;;;;;;;23.97;70.40;100030.56;125199;1102;104895;-80
2021/07/31 03:02:09;;;;;;;24.80;13.77;;;;;;;23.98;70.41;100030.53;125225;1102;104200;-80
2021/07/31 03:04:45;;;;;;;29.50;13.90;;;;;;;23.99;70.35;100024.23;125239;1102;104707;-80
2021/07/31 03:07:26;;;;;;;25.03;13.83;;;;;;;23.99;70.35;100026.91;125258;1102;104140;-79
2021/07/31 03:10:00;;;;;;;26.00;13.27;;;;;;;23.99;70.17;100028.72;125188;1099;104316;-81
2021/07/31 03:12:35;;;;;;;22.57;14.10;;;;;;;24.01;70.30;100030.44;125214;1099;104146;-80
2021/07/31 03:15:06;;;;;;;24.07;14.53;;;;;;;24.03;70.64;100023.23;125162;1099;104220;-80
2021/07/31 03:17:38;;;;;;;24.33;13.37;;;;;;;24.03;70.34;100028.59;125214;1099;104169;-79
2021/07/31 03:20:11;;;;;;;24.43;13.70;;;;;;;24.01;70.39;100018.83;125224;1102;104155;-79
2021/07/31 03:22:43;;;;;;;25.25;13.55;;;;;;;23.98;70.40;100027.84;125241;1102;104175;-79
2021/07/31 03:25:16;;;;;;;25.83;13.50;;;;;;;23.96;70.54;100032.34;125200;1102;104210;-81
2021/07/31 03:27:47;;;;;;;28.03;13.10;;;;;;;23.95;70.50;100035.97;125236;1102;104159;-81
2021/07/31 03:30:33;;;;;;;25.10;13.33;;;;;;;23.94;70.77;100036.87;125139;1102;104222;-79
2021/07/31 03:33:09;;;;;;;21.50;11.83;;;;;;;23.94;70.49;100036.87;125231;1102;104275;-79
2021/07/31 03:35:43;;;;;;;23.07;12.90;;;;;;;23.99;70.14;100034.94;125180;1102;104319;-80
2021/07/31 03:38:33;;;;;;;23.27;13.50;;;;;;;24.02;70.21;100034.86;125134;1102;104598;-80
2021/07/31 03:41:04;;;;;;;24.67;12.87;;;;;;;24.03;70.34;100033.95;125200;1100;104181;-78
2021/07/31 03:43:42;;;;;;;22.73;12.80;;;;;;;24.04;70.36;100041.08;125222;1102;105856;-80
2021/07/31 03:46:13;;;;;;;22.53;12.97;;;;;;;24.04;70.31;100045.53;125215;1102;104305;-80
2021/07/31 03:48:44;;;;;;;24.43;12.60;;;;;;;24.07;70.56;100036.55;125138;1102;104911;-81
2021/07/31 03:51:18;;;;;;;23.90;12.63;;;;;;;24.11;70.43;100047.14;124965;1102;104232;-80
2021/07/31 03:53:51;;;;;;;21.97;11.87;;;;;;;24.15;70.65;100042.56;125198;1102;104271;-79
2021/07/31 03:56:21;;;;;;;24.53;12.17;;;;;;;24.19;70.42;100050.48;125216;1102;104160;-79
2021/07/31 03:58:55;;;;;;;22.15;12.75;;;;;;;24.25;70.28;100045.86;125224;1102;104376;-79
2021/07/31 04:01:30;;;;;;;24.30;13.57;;;;;;;24.30;70.04;100052.86;125174;1102;108161;-81
2021/07/31 04:04:05;;;;;;;25.50;14.17;;;;;;;24.39;70.23;100051.73;125051;1102;104147;-79
2021/07/31 04:06:38;;;;;;;25.13;13.87;;;;;;;24.45;70.18;100051.56;125191;1102;104302;-79
2021/07/31 04:09:24;;;;;;;29.13;13.23;;;;;;;24.50;70.05;100049.62;125205;1102;104331;-80
2021/07/31 04:12:15;;;;;;;26.70;12.90;;;;;;;24.49;69.75;100061.26;125253;1102;104383;-79
2021/07/31 04:15:05;;;;;;;26.80;13.15;;;;;;;24.54;69.80;100066.48;125222;1102;104161;-80
2021/07/31 04:17:37;;;;;;;22.70;13.13;;;;;;;24.62;69.94;100063.62;125175;1102;104309;-80
2021/07/31 04:20:09;;;;;;;23.00;12.20;;;;;;;24.69;69.97;100068.77;125190;1102;104178;-79
2021/07/31 04:22:40;;;;;;;27.20;12.23;;;;;;;24.71;69.65;100068.72;125239;1099;104579;-80
2021/07/31 04:25:12;;;;;;;27.07;13.53;;;;;;;24.67;69.85;100059.89;125188;1102;104192;-80
2021/07/31 04:27:42;;;;;;;25.63;12.63;;;;;;;24.66;69.57;100054.57;125221;1102;104145;-80
2021/07/31 04:30:14;;;;;;;27.53;13.87;;;;;;;24.69;69.82;100055.34;125182;1102;104319;-79
2021/07/31 04:32:45;;;;;;;24.40;13.10;;;;;;;24.75;69.55;100054.30;125149;1102;104175;-80
2021/07/31 04:35:16;;;;;;;33.23;15.00;;;;;;;24.81;69.48;100058.58;125255;1102;104181;-79
2021/07/31 04:37:47;;;;;;;31.97;15.47;;;;;;;24.83;69.69;100062.98;125207;1102;104208;-81
2021/07/31 04:40:18;;;;;;;29.47;15.77;;;;;;;24.82;69.62;100061.22;125223;1100;104140;-80
2021/07/31 04:42:49;;;;;;;29.53;16.23;;;;;;;24.83;69.10;100070.17;125207;1102;104252;-80
2021/07/31 04:45:20;;;;;;;32.30;18.13;;;;;;;24.83;69.10;100070.17;125197;1099;104175;-80
2021/07/31 04:47:51;;;;;;;31.17;15.97;;;;;;;24.86;69.44;100064.71;125263;1099;104152;-81
2021/07/31 04:50:22;;;;;;;36.40;17.33;;;;;;;24.93;69.46;100068.94;125164;1102;104216;-79
2021/07/31 04:52:54;;;;;;;34.03;16.93;;;;;;;25.03;69.49;100056.14;125207;1102;104412;-80
2021/07/31 04:55:27;;;;;;;34.00;16.47;;;;;;;25.15;69.23;100066.50;125235;1102;104294;-80
2021/07/31 04:58:04;;;;;;;29.90;16.20;;;;;;;25.26;69.09;100061.66;125184;1102;104146;-80
